Terminal Aerodrome Forecast
Issued by NWS

Current Version | Previous Version | Graphics & Text | Print | Product List | Glossary On
Versions: 1 2 3 4 5 6 7 8 9 10 11 12 13 14 15 16 17 18 19 20
000
FTUS41 KILN 260500
TAFLCK
TAF
KLCK 260536Z 2606/2706 19004KT P6SM BKN080
     FM261600 22011KT P6SM SCT025 BKN040
     FM262000 23009KT P6SM VCSH BKN040 OVC200
     FM270300 23005KT P6SM VCTS BKN040CB=

USA.gov is the U.S. government's official web portal to all federal, state and local government web resources and services.